Flight Track Log - Related Links

Times and Time Zones

All times are in EST time to prevent confusion due to time zone crossing. See the AMF1695 flight status page for this flight to view local times or setup timezone preferences in your user account.

Time Position Orientation Groundspeed Altitude Reporting Facility
EST Latitude Longitude Course Direction KTS MPH feet Rate Location/Type
Fri 09:14:07 PM 40.9947 -98.1758 75° East 165 190 5,600  Level Minneapolis Center
Fri 09:15:09 PM 41.0150 -98.1147 66° East 175 201 6,800 1,113 Climbing Minneapolis Center
Fri 09:16:11 PM 41.0303 -98.0500 73° East 182 209 7,900 1,016 Climbing Minneapolis Center
Fri 09:17:13 PM 41.0511 -97.9872 66° East 185 213 8,900 581 Climbing Minneapolis Center
Fri 09:18:15 PM 41.0717 -97.9161 69° East 201 231 9,100 48 Climbing Minneapolis Center
Fri 09:19:17 PM 41.0878 -97.8208 77° East 219 252 9,000 -97 Descending Minneapolis Center
Fri 09:20:19 PM 41.0981 -97.7400 80° East 222 255 8,900  Descending Minneapolis Center
Fri 09:21:21 PM 41.0969 -97.6589 91° East 221 254 9,000 54 Climbing Minneapolis Center
Fri 09:22:10 PM 41.0731 -97.5917 115° Southeast 213 245 9,000  Level Minneapolis Center
Fri 09:22:23 PM 41.0922 -97.5806 24° Northeast 215 247 9,000  Level Minneapolis Center
Fri 09:23:35 PM 41.0569 -97.4856 116° Southeast 211 243 9,000  Level Minneapolis Center
Fri 09:24:27 PM 41.0736 -97.4267 69° East 213 245 9,000 100 Level Minneapolis Center
Fri 09:24:35 PM 41.0592 -97.4081 136° Southeast 214 246 9,100 97 Climbing Minneapolis Center
Fri 09:25:29 PM 41.0878 -97.3417 60° Northeast 215 247 9,100  Level Minneapolis Center
Fri 09:25:36 PM 41.0736 -97.3239 137° Southeast 218 251 9,100  Level Minneapolis Center
Fri 09:26:30 PM 41.1100 -97.2656 50° Northeast 218 251 9,100  Level Minneapolis Center
Fri 09:26:37 PM 41.0986 -97.2497 134° Southeast 223 257 9,100 -97 Level Minneapolis Center
Fri 09:27:32 PM 41.1306 -97.1892 55° Northeast 220 253 9,000 -100 Descending Minneapolis Center
Fri 09:27:37 PM 41.1153 -97.1708 138° Southeast 220 253 9,000 97 Level Minneapolis Center
Fri 09:28:34 PM 41.1386 -97.0992 67° East 220 253 9,100 98 Climbing Minneapolis Center
Fri 09:28:38 PM 41.1194 -97.0931 166° South 216 249 9,100 -130 Level Minneapolis Center
Fri 09:29:20 PM 41.1183 -97.0350 91° East 217 250 9,000 -103 Descending Minneapolis Center
Fri 09:29:36 PM 41.1336 -97.0289 17° North 217 250 9,000 77 Level Minneapolis Center
Fri 09:30:38 PM 41.1211 -96.9361 100° East 213 245 9,100 95 Climbing Minneapolis Center
Fri 09:30:39 PM 41.1061 -96.9339 174° South 210 242 9,100  Level Minneapolis Center
Fri 09:31:39 PM 41.1169 -96.8575 79° East 214 246 9,100  Level Minneapolis Center
Fri 09:31:40 PM 41.1058 -96.8539 166° South 219 252 9,100 -109 Level Minneapolis Center
Fri 09:32:34 PM 41.1100 -96.7817 86° East 219 252 9,000 -98 Descending Minneapolis Center
Fri 09:32:41 PM 41.1214 -96.7778 14° North 217 250 9,000  Level Minneapolis Center
Fri 09:33:29 PM 41.1139 -96.7092 98° East 220 253 9,000  Level Minneapolis Center
Fri 09:33:43 PM 41.1258 -96.6964 39° Northeast 220 253 9,000 -393 Level Minneapolis Center
Fri 09:34:30 PM 41.1194 -96.6258 97° East 225 259 8,600 -590 Descending Minneapolis Center
Fri 09:34:44 PM 41.1294 -96.6133 43° Northeast 224 258 8,400 -789 Descending Minneapolis Center
Fri 09:35:46 PM 41.1414 -96.5247 80° East 240 276 7,600 -850 Descending Minneapolis Center
Fri 09:36:37 PM 41.1583 -96.4364 76° East 248 285 6,800 -677 Descending Minneapolis Center
Fri 09:36:48 PM 41.1636 -96.4367 358° North 249 287 6,900 -833 Climbing Minneapolis Center
Fri 09:37:49 PM 41.1903 -96.3347 71° East 247 284 5,800 -1,091 Descending Minneapolis Center
Fri 09:38:38 PM 41.2019 -96.2656 77° East 246 283 4,900 -968 Descending Minneapolis Center
Fri 09:38:51 PM 41.2097 -96.2492 58° Northeast 245 282 4,800 -689 Descending Minneapolis Center
Fri 09:39:39 PM 41.2217 -96.1803 77° East 238 274 4,200 -689 Descending Minneapolis Center
Fri 09:39:52 PM 41.2297 -96.1658 53° Northeast 242 278 4,100 -111 Descending Minneapolis Center
Fri 09:40:33 PM 41.2597 -96.1233 47° Northeast 227 261 4,100 -97 Level Minneapolis Center
Fri 09:40:54 PM 41.2753 -96.1042 43° Northeast 237 273 4,000 -590 Descending Minneapolis Center
Fri 09:41:34 PM 41.2956 -96.0583 59° Northeast 216 249 3,500 -689 Descending Minneapolis Center
Fri 09:41:55 PM 41.3047 -96.0358 62° Northeast 226 260 3,300 -885 Descending Minneapolis Center
Fri 09:42:35 PM 41.3222 -95.9886 64° Northeast 202 232 2,600 -871 Descending Minneapolis Center
Fri 09:42:57 PM 41.3325 -95.9597 65° Northeast 209 241 2,400 -723 Descending Minneapolis Center
Fri 09:43:58 PM 41.3264 -95.9181 101° East 153 176 1,600 -585 Descending Minneapolis Center
Fri 09:45:00 PM 41.3033 -95.8961 144° Southeast 135 155 1,200 -387 Descending Minneapolis Center
Fri 09:46:00 PM 41.3032 -95.8941 96° East  Level Estimated

Login

Don't have an account? Register now (free) for customized features, flight alerts, and more!